createdAt,value
2022-10-24T00:01:30.083Z,101295.97
2022-10-24T00:04:01.950Z,101300.19
2022-10-24T00:06:29.774Z,101295.03
2022-10-24T00:08:57.222Z,101298.78
2022-10-24T00:11:28.579Z,101296.09
2022-10-24T00:13:57.802Z,101295.63
2022-10-24T00:16:26.284Z,101294.44
2022-10-24T00:18:54.762Z,101283.84
2022-10-24T00:21:23.344Z,101278.81
2022-10-24T00:23:50.969Z,101275.88
2022-10-24T00:26:19.304Z,101272.00
2022-10-24T00:28:47.249Z,101273.50
2022-10-24T00:31:18.137Z,101268.09
2022-10-24T00:33:46.847Z,101280.44
2022-10-24T00:36:17.700Z,101277.75
2022-10-24T00:38:45.692Z,101278.91
2022-10-24T00:41:17.127Z,101284.47
2022-10-24T00:43:48.279Z,101271.63
2022-10-24T00:46:18.385Z,101274.09
2022-10-24T00:48:52.948Z,101269.25
2022-10-24T00:51:26.537Z,101272.47
2022-10-24T00:54:06.962Z,101272.34
2022-10-24T00:57:02.459Z,101279.03
2022-10-24T00:59:31.346Z,101278.41
2022-10-24T01:01:59.524Z,101281.50
2022-10-24T01:04:27.080Z,101275.59
2022-10-24T01:07:27.512Z,101281.50
2022-10-24T01:10:04.082Z,101269.97
2022-10-24T01:12:55.810Z,101275.84
2022-10-24T01:15:38.608Z,101286.75
2022-10-24T01:18:09.125Z,101291.59
2022-10-24T01:21:08.322Z,101295.91
2022-10-24T01:24:03.876Z,101299.56
2022-10-24T01:26:56.716Z,101295.81
2022-10-24T01:29:42.814Z,101296.50
2022-10-24T01:32:27.917Z,101301.88
2022-10-24T01:35:06.217Z,101288.84
2022-10-24T01:37:49.253Z,101281.81
2022-10-24T01:40:27.583Z,101288.06
2022-10-24T01:43:00.837Z,101287.56
2022-10-24T01:45:38.945Z,101281.97
2022-10-24T01:48:10.795Z,101284.81
2022-10-24T01:50:40.020Z,101277.59
2022-10-24T01:53:10.116Z,101281.72
2022-10-24T01:55:40.486Z,101274.00
2022-10-24T01:58:09.828Z,101278.88
2022-10-24T02:00:37.694Z,101269.88
2022-10-24T02:03:17.993Z,101278.31
2022-10-24T02:06:02.421Z,101281.97
2022-10-24T02:08:38.947Z,101278.78
2022-10-24T02:11:10.574Z,101271.84
2022-10-24T02:14:19.779Z,101272.56
2022-10-24T02:16:48.217Z,101271.16
2022-10-24T02:19:17.051Z,101266.56
2022-10-24T02:22:02.144Z,101273.16
2022-10-24T02:24:47.453Z,101266.09
2022-10-24T02:27:37.335Z,101274.19
2022-10-24T02:30:14.659Z,101267.03
2022-10-24T02:32:50.106Z,101265.28
2022-10-24T02:35:27.534Z,101262.72
2022-10-24T02:38:12.216Z,101264.56
2022-10-24T02:40:42.519Z,101262.00
2022-10-24T02:43:13.802Z,101254.22
2022-10-24T02:45:41.566Z,101261.16
2022-10-24T02:48:14.604Z,101266.94
2022-10-24T02:50:44.749Z,101263.03
2022-10-24T02:53:20.133Z,101259.50
2022-10-24T02:55:48.388Z,101266.31
2022-10-24T02:58:16.050Z,101253.03
2022-10-24T03:00:44.766Z,101249.84
2022-10-24T03:03:13.038Z,101254.03
2022-10-24T03:05:41.296Z,101249.69
2022-10-24T03:08:08.898Z,101248.50
2022-10-24T03:10:37.658Z,101241.81
2022-10-24T03:13:05.225Z,101238.41
2022-10-24T03:15:34.109Z,101239.25
2022-10-24T03:18:01.936Z,101246.88
2022-10-24T03:20:29.550Z,101244.41
2022-10-24T03:22:57.324Z,101238.66
2022-10-24T03:25:25.420Z,101248.88
2022-10-24T03:27:53.526Z,101249.91
2022-10-24T03:30:20.862Z,101250.06
2022-10-24T03:32:48.622Z,101255.78
2022-10-24T03:35:18.175Z,101260.94
2022-10-24T03:37:47.280Z,101256.25
2022-10-24T03:40:15.037Z,101258.56
2022-10-24T03:42:43.467Z,101253.50
2022-10-24T03:45:11.901Z,101267.59
2022-10-24T03:47:39.364Z,101265.59
2022-10-24T03:50:08.152Z,101258.91
2022-10-24T03:52:36.104Z,101274.63
2022-10-24T03:55:06.511Z,101268.94
2022-10-24T03:57:41.290Z,101276.88
2022-10-24T04:00:09.922Z,101288.59
2022-10-24T04:02:40.221Z,101291.38
2022-10-24T04:05:10.996Z,101296.91
2022-10-24T04:07:39.400Z,101311.47
2022-10-24T04:10:08.023Z,101313.63
2022-10-24T04:12:36.131Z,101297.13
2022-10-24T04:15:05.466Z,101300.72
2022-10-24T04:17:34.017Z,101295.63
2022-10-24T04:20:02.392Z,101278.50
2022-10-24T04:22:31.723Z,101252.09
2022-10-24T04:25:00.549Z,101239.03
2022-10-24T04:27:28.945Z,101254.78
2022-10-24T04:29:57.033Z,101287.34
2022-10-24T04:32:24.870Z,101301.00
2022-10-24T04:34:52.995Z,101304.00
2022-10-24T04:37:22.338Z,101289.59
2022-10-24T04:39:50.200Z,101283.31
2022-10-24T04:42:21.536Z,101290.56
2022-10-24T04:44:49.074Z,101291.75
2022-10-24T04:47:24.624Z,101289.00
2022-10-24T04:49:52.218Z,101293.94
2022-10-24T04:52:19.851Z,101302.41
2022-10-24T04:54:50.079Z,101296.78
2022-10-24T04:57:18.039Z,101305.34
2022-10-24T04:59:45.765Z,101300.09
2022-10-24T05:02:13.477Z,101301.94
2022-10-24T05:04:41.988Z,101292.88
2022-10-24T05:07:09.929Z,101280.44
2022-10-24T05:09:37.714Z,101294.31
2022-10-24T05:12:06.243Z,101296.31
2022-10-24T05:14:33.971Z,101277.88
2022-10-24T05:17:01.536Z,101276.91
2022-10-24T05:19:28.978Z,101273.44
2022-10-24T05:21:56.403Z,101280.63
2022-10-24T05:24:29.090Z,101286.13
2022-10-24T05:26:59.722Z,101291.09
2022-10-24T05:29:30.004Z,101292.50
2022-10-24T05:31:57.594Z,101296.84
2022-10-24T05:34:28.226Z,101292.88
2022-10-24T05:36:57.145Z,101296.38
2022-10-24T05:39:25.132Z,101291.09
2022-10-24T05:41:55.346Z,101297.69
2022-10-24T05:44:24.127Z,101304.97
2022-10-24T05:46:51.807Z,101304.38
2022-10-24T05:49:19.441Z,101310.81
2022-10-24T05:51:47.678Z,101317.75
2022-10-24T05:54:15.502Z,101320.91
2022-10-24T05:56:43.449Z,101323.38
2022-10-24T05:59:11.650Z,101319.84
2022-10-24T06:01:42.037Z,101317.03
2022-10-24T06:04:14.086Z,101316.78
2022-10-24T06:06:44.943Z,101317.84
2022-10-24T06:09:13.450Z,101313.13
2022-10-24T06:11:41.829Z,101316.06
2022-10-24T06:14:10.853Z,101319.59
2022-10-24T06:16:39.071Z,101323.25
2022-10-24T06:19:06.727Z,101317.59
2022-10-24T06:21:35.942Z,101311.72
2022-10-24T06:24:03.889Z,101307.75
2022-10-24T06:26:31.783Z,101306.31
2022-10-24T06:28:59.566Z,101309.16
2022-10-24T06:31:28.551Z,101309.16
2022-10-24T06:33:56.098Z,101310.34
2022-10-24T06:36:26.830Z,101309.78
2022-10-24T06:38:58.115Z,101317.28
2022-10-24T06:41:25.713Z,101306.00
2022-10-24T06:43:56.815Z,101312.00
2022-10-24T06:46:24.654Z,101322.34
2022-10-24T06:48:56.012Z,101324.81
2022-10-24T06:51:25.278Z,101334.34
2022-10-24T06:53:55.358Z,101340.13
2022-10-24T06:56:23.394Z,101345.66
2022-10-24T06:58:51.162Z,101338.38
2022-10-24T07:01:22.543Z,101343.94
2022-10-24T07:03:51.282Z,101349.09
2022-10-24T07:06:23.959Z,101349.56
2022-10-24T07:08:54.548Z,101351.22
2022-10-24T07:11:22.508Z,101346.09
2022-10-24T07:13:50.276Z,101355.38
2022-10-24T07:16:19.076Z,101350.13
2022-10-24T07:18:52.353Z,101355.41
2022-10-24T07:21:28.868Z,101370.22
2022-10-24T07:23:57.424Z,101363.88
2022-10-24T07:26:28.110Z,101372.47
2022-10-24T07:31:32.772Z,101386.34
2022-10-24T07:34:01.965Z,101383.19
2022-10-24T07:36:31.379Z,101392.00
2022-10-24T07:39:01.327Z,101393.06
2022-10-24T07:41:31.742Z,101396.59
2022-10-24T07:44:04.631Z,101391.56
2022-10-24T07:46:33.068Z,101390.13
2022-10-24T07:49:00.963Z,101397.06
2022-10-24T07:51:30.258Z,101391.28
2022-10-24T07:53:59.779Z,101401.75
2022-10-24T07:56:27.837Z,101406.09
2022-10-24T07:58:57.031Z,101407.13
2022-10-24T08:01:27.617Z,101411.59
2022-10-24T08:03:56.894Z,101413.25
2022-10-24T08:06:29.974Z,101418.50
2022-10-24T08:08:58.117Z,101422.63
2022-10-24T08:11:27.425Z,101433.22
2022-10-24T08:13:57.559Z,101425.75
2022-10-24T08:16:26.637Z,101428.09
2022-10-24T08:18:59.147Z,101421.22
2022-10-24T08:21:27.754Z,101424.84
2022-10-24T08:23:56.239Z,101421.38
2022-10-24T08:26:26.401Z,101423.94
2022-10-24T08:28:55.817Z,101430.94
2022-10-24T08:31:25.707Z,101426.41
2022-10-24T08:33:55.353Z,101428.84
2022-10-24T08:36:32.399Z,101438.38
2022-10-24T08:39:00.969Z,101435.25
2022-10-24T08:41:41.837Z,101431.25
2022-10-24T08:44:28.649Z,101436.91
2022-10-24T08:47:00.367Z,101435.00
2022-10-24T08:49:50.542Z,101441.03
2022-10-24T08:52:38.153Z,101435.59
2022-10-24T08:58:06.608Z,101433.63
2022-10-24T09:00:46.822Z,101437.72
2022-10-24T09:03:54.575Z,101445.38
2022-10-24T09:06:27.940Z,101448.41
2022-10-24T09:09:02.591Z,101450.38
2022-10-24T09:11:48.949Z,101451.63
2022-10-24T09:14:23.957Z,101456.63
2022-10-24T09:17:20.509Z,101459.66
2022-10-24T09:20:09.219Z,101468.13
2022-10-24T09:22:39.427Z,101455.44
2022-10-24T09:25:15.689Z,101457.44
2022-10-24T09:27:44.638Z,101467.84
2022-10-24T09:30:29.867Z,101469.59
2022-10-24T09:33:17.944Z,101453.63
2022-10-24T09:35:51.414Z,101453.94
2022-10-24T09:38:32.048Z,101456.66
2022-10-24T09:41:25.672Z,101461.03
2022-10-24T09:43:58.257Z,101457.25
2022-10-24T09:46:35.907Z,101450.78
2022-10-24T09:49:23.949Z,101455.97
2022-10-24T09:52:06.246Z,101453.00
2022-10-24T09:54:37.476Z,101451.41
2022-10-24T09:57:11.445Z,101444.09
2022-10-24T09:59:51.049Z,101450.41
2022-10-24T10:02:38.621Z,101447.19
2022-10-24T10:05:09.395Z,101440.69
2022-10-24T10:07:42.564Z,101441.94
2022-10-24T10:10:19.587Z,101441.47
2022-10-24T10:12:56.861Z,101446.47
2022-10-24T10:15:33.344Z,101441.19
2022-10-24T10:18:30.219Z,101441.81
2022-10-24T10:21:08.189Z,101446.25
2022-10-24T10:23:42.460Z,101444.69
2022-10-24T10:26:15.866Z,101434.94
2022-10-24T10:28:47.348Z,101441.53
2022-10-24T10:31:20.550Z,101448.09
2022-10-24T10:34:14.149Z,101443.25
2022-10-24T10:37:16.182Z,101433.28
2022-10-24T10:40:18.186Z,101431.09
2022-10-24T10:43:32.474Z,101429.50
2022-10-24T10:46:21.875Z,101433.03
2022-10-24T10:49:02.657Z,101425.22
2022-10-24T10:51:52.114Z,101417.63
2022-10-24T10:54:31.040Z,101414.19
2022-10-24T10:57:07.792Z,101414.22
2022-10-24T11:00:11.993Z,101409.97
2022-10-24T11:02:52.919Z,101410.03
2022-10-24T11:05:42.378Z,101408.94
2022-10-24T11:08:29.740Z,101406.53
2022-10-24T11:11:03.623Z,101403.53
2022-10-24T11:13:41.523Z,101400.00
2022-10-24T11:16:21.038Z,101400.78
2022-10-24T11:18:51.637Z,101400.53
2022-10-24T11:21:21.907Z,101394.81
2022-10-24T11:24:01.280Z,101389.34
2022-10-24T11:26:40.917Z,101377.91
2022-10-24T11:29:40.836Z,101366.72
2022-10-24T11:32:40.615Z,101363.75
2022-10-24T11:35:29.962Z,101366.78
2022-10-24T11:38:14.110Z,101365.13
2022-10-24T11:40:45.379Z,101360.50
2022-10-24T11:43:24.419Z,101361.88
2022-10-24T11:46:01.198Z,101363.25
2022-10-24T11:48:41.469Z,101357.53
2022-10-24T11:51:38.009Z,101353.19
2022-10-24T11:54:14.351Z,101347.78
2022-10-24T11:56:50.326Z,101355.06
2022-10-24T11:59:24.603Z,101345.03
2022-10-24T12:01:55.058Z,101341.22
2022-10-24T12:04:40.635Z,101347.50
2022-10-24T12:07:16.871Z,101342.59
2022-10-24T12:10:04.783Z,101334.38
2022-10-24T12:13:10.264Z,101339.31
2022-10-24T12:16:05.238Z,101328.69
2022-10-24T12:18:41.964Z,101329.19
2022-10-24T12:21:25.506Z,101320.72
2022-10-24T12:24:01.814Z,101320.16
2022-10-24T12:26:35.883Z,101323.16
2022-10-24T12:29:09.948Z,101312.81
2022-10-24T12:31:39.125Z,101316.88
2022-10-24T12:34:15.947Z,101312.84
2022-10-24T12:37:12.872Z,101300.28
2022-10-24T12:39:49.324Z,101295.66
2022-10-24T12:42:26.025Z,101292.91
2022-10-24T12:45:02.600Z,101287.19
2022-10-24T12:47:34.718Z,101294.56
2022-10-24T12:50:21.369Z,101284.19
2022-10-24T12:52:57.630Z,101278.75
2022-10-24T12:55:39.591Z,101278.19
2022-10-24T12:58:30.291Z,101272.19
2022-10-24T13:01:23.429Z,101270.56
2022-10-24T13:03:50.807Z,101269.47
2022-10-24T13:06:31.955Z,101262.38
2022-10-24T13:09:50.475Z,101265.38
2022-10-24T13:12:52.519Z,101261.84
2022-10-24T13:15:40.200Z,101264.56
2022-10-24T13:18:19.584Z,101265.06
2022-10-24T13:20:52.411Z,101255.78
2022-10-24T13:23:26.971Z,101256.38
2022-10-24T13:26:00.268Z,101252.25
2022-10-24T13:28:30.746Z,101256.88
2022-10-24T13:31:18.457Z,101254.69
2022-10-24T13:33:48.269Z,101259.06
2022-10-24T13:36:24.266Z,101250.06
2022-10-24T13:39:03.831Z,101255.81
2022-10-24T13:41:46.416Z,101245.97
2022-10-24T13:44:26.047Z,101253.63
2022-10-24T13:47:04.211Z,101251.16
2022-10-24T13:49:53.526Z,101250.63
2022-10-24T13:52:49.102Z,101247.34
2022-10-24T13:55:31.246Z,101251.72
2022-10-24T13:58:09.355Z,101249.53
2022-10-24T14:00:43.310Z,101247.06
2022-10-24T14:03:20.446Z,101238.06
2022-10-24T14:05:53.999Z,101247.34
2022-10-24T14:08:37.801Z,101246.00
2022-10-24T14:11:19.740Z,101239.16
2022-10-24T14:13:53.556Z,101247.63
2022-10-24T14:16:39.204Z,101242.72
2022-10-24T14:19:28.373Z,101244.63
2022-10-24T14:21:58.876Z,101248.44
2022-10-24T14:24:26.508Z,101248.44
2022-10-24T14:26:57.309Z,101247.06
2022-10-24T14:29:32.888Z,101244.91
2022-10-24T14:32:13.885Z,101258.53
2022-10-24T14:34:43.187Z,101255.81
2022-10-24T14:37:25.532Z,101242.72
2022-10-24T14:39:54.387Z,101255.00
2022-10-24T14:42:22.282Z,101252.28
2022-10-24T14:44:54.832Z,101250.06
2022-10-24T14:47:29.907Z,101262.59
2022-10-24T14:50:00.717Z,101249.50
2022-10-24T14:52:48.252Z,101259.34
2022-10-24T14:55:25.844Z,101264.50
2022-10-24T14:57:55.037Z,101256.88
2022-10-24T15:00:25.151Z,101258.25
2022-10-24T15:02:56.906Z,101275.72
2022-10-24T15:05:24.103Z,101256.34
2022-10-24T15:08:21.527Z,101258.78
2022-10-24T15:10:50.724Z,101267.50
2022-10-24T15:13:22.315Z,101259.59
2022-10-24T15:15:49.758Z,101266.69
2022-10-24T15:18:25.178Z,101265.88
2022-10-24T15:21:01.767Z,101260.72
2022-10-24T15:23:32.493Z,101269.16
2022-10-24T15:26:03.052Z,101269.16
2022-10-24T15:28:59.285Z,101272.44
2022-10-24T15:31:28.470Z,101267.53
2022-10-24T15:33:56.505Z,101269.44
2022-10-24T15:36:30.644Z,101261.78
2022-10-24T15:39:20.730Z,101270.25
2022-10-24T15:41:48.751Z,101267.50
2022-10-24T15:44:26.879Z,101281.41
2022-10-24T15:46:55.230Z,101277.59
2022-10-24T15:49:23.330Z,101270.22
2022-10-24T15:51:52.072Z,101279.78
2022-10-24T15:54:27.593Z,101282.47
2022-10-24T15:56:55.968Z,101281.63
2022-10-24T15:59:27.081Z,101283.00
2022-10-24T16:01:58.423Z,101283.81
2022-10-24T16:04:26.242Z,101285.75
2022-10-24T16:06:54.793Z,101285.69
2022-10-24T16:09:28.072Z,101287.84
2022-10-24T16:12:06.281Z,101289.47
2022-10-24T16:14:34.516Z,101293.28
2022-10-24T16:17:02.563Z,101298.19
2022-10-24T16:19:31.141Z,101300.09
2022-10-24T16:22:00.993Z,101292.19
2022-10-24T16:24:32.862Z,101301.69
2022-10-24T16:27:00.285Z,101303.63
2022-10-24T16:29:27.614Z,101306.59
2022-10-24T16:31:55.059Z,101307.94
2022-10-24T16:34:23.909Z,101306.81
2022-10-24T16:37:01.475Z,101301.06
2022-10-24T16:39:34.284Z,101314.41
2022-10-24T16:42:04.913Z,101311.34
2022-10-24T16:47:32.660Z,101308.31
2022-10-24T16:50:00.830Z,101311.06
2022-10-24T16:52:28.770Z,101309.31
2022-10-24T16:54:56.334Z,101314.78
2022-10-24T16:59:52.362Z,101318.28
2022-10-24T17:02:19.993Z,101325.63
2022-10-24T17:04:47.391Z,101328.06
2022-10-24T17:07:15.533Z,101331.28
2022-10-24T17:09:43.209Z,101321.50
2022-10-24T17:12:14.959Z,101332.88
2022-10-24T17:14:45.382Z,101332.84
2022-10-24T17:17:13.695Z,101334.47
2022-10-24T17:19:48.713Z,101338.00
2022-10-24T17:22:16.367Z,101336.59
2022-10-24T17:24:44.547Z,101341.22
2022-10-24T17:27:13.953Z,101346.09
2022-10-24T17:29:45.460Z,101343.84
2022-10-24T17:32:14.281Z,101353.09
2022-10-24T17:34:44.636Z,101354.75
2022-10-24T17:37:55.197Z,101367.50
2022-10-24T17:40:28.672Z,101373.19
2022-10-24T17:42:58.048Z,101373.72
2022-10-24T17:45:26.607Z,101387.00
2022-10-24T17:47:54.081Z,101387.84
2022-10-24T17:50:21.792Z,101387.28
2022-10-24T17:52:51.809Z,101391.09
2022-10-24T17:55:45.558Z,101391.59
2022-10-24T17:58:18.978Z,101395.63
2022-10-24T18:00:47.219Z,101395.56
2022-10-24T18:03:15.434Z,101401.28
2022-10-24T18:05:42.853Z,101405.31
2022-10-24T18:08:12.364Z,101409.91
2022-10-24T18:10:41.989Z,101407.16
2022-10-24T18:13:10.294Z,101415.81
2022-10-24T18:15:39.131Z,101411.97
2022-10-24T18:18:07.851Z,101415.44
2022-10-24T18:20:36.137Z,101409.19
2022-10-24T18:23:06.458Z,101410.28
2022-10-24T18:25:33.925Z,101416.97
2022-10-24T18:28:01.709Z,101417.81
2022-10-24T18:30:32.875Z,101417.47
2022-10-24T18:33:00.739Z,101423.75
2022-10-24T18:35:33.760Z,101422.63
2022-10-24T18:38:02.501Z,101425.81
2022-10-24T18:40:33.254Z,101420.38
2022-10-24T18:43:05.756Z,101428.53
2022-10-24T18:45:34.963Z,101417.38
2022-10-24T18:48:03.993Z,101422.47
2022-10-24T18:50:41.027Z,101420.00
2022-10-24T18:53:24.128Z,101434.13
2022-10-24T18:55:55.069Z,101438.97
2022-10-24T18:58:22.984Z,101443.00
2022-10-24T19:00:56.350Z,101448.13
2022-10-24T19:03:40.525Z,101438.81
2022-10-24T19:06:29.127Z,101458.81
2022-10-24T19:08:58.965Z,101457.09
2022-10-24T19:11:27.273Z,101453.31
2022-10-24T19:13:58.911Z,101446.50
2022-10-24T19:16:30.056Z,101460.31
2022-10-24T19:19:02.932Z,101457.78
2022-10-24T19:21:30.567Z,101465.69
2022-10-24T19:23:58.133Z,101469.78
2022-10-24T19:26:25.778Z,101470.03
2022-10-24T19:28:54.764Z,101474.63
2022-10-24T19:31:23.036Z,101479.50
2022-10-24T19:33:54.476Z,101485.91
2022-10-24T19:36:22.011Z,101487.72
2022-10-24T19:38:56.168Z,101492.69
2022-10-24T19:41:24.564Z,101486.66
2022-10-24T19:43:52.354Z,101488.56
2022-10-24T19:46:20.584Z,101484.44
2022-10-24T19:48:49.682Z,101486.09
2022-10-24T19:51:18.999Z,101485.75
2022-10-24T19:53:47.892Z,101478.44
2022-10-24T19:56:23.950Z,101484.69
2022-10-24T19:58:54.486Z,101491.19
2022-10-24T20:01:27.056Z,101490.59
2022-10-24T20:03:58.187Z,101494.16
2022-10-24T20:06:29.245Z,101489.22
2022-10-24T20:08:57.595Z,101506.59
2022-10-24T20:11:26.974Z,101507.63
2022-10-24T20:13:57.279Z,101501.41
2022-10-24T20:16:26.723Z,101497.03
2022-10-24T20:18:58.193Z,101507.09
2022-10-24T20:21:31.884Z,101509.94
2022-10-24T20:24:02.752Z,101509.09
2022-10-24T20:26:32.228Z,101510.19
2022-10-24T20:29:00.951Z,101516.94
2022-10-24T20:31:36.800Z,101521.78
2022-10-24T20:34:10.580Z,101524.72
2022-10-24T20:36:45.701Z,101517.34
2022-10-24T20:39:16.895Z,101518.66
2022-10-24T20:41:47.196Z,101518.03
2022-10-24T20:44:17.308Z,101515.22
2022-10-24T20:46:47.465Z,101518.59
2022-10-24T20:49:15.423Z,101522.91
2022-10-24T20:51:46.936Z,101516.94
2022-10-24T20:54:29.461Z,101522.09
2022-10-24T20:57:01.601Z,101517.44
2022-10-24T20:59:42.047Z,101523.09
2022-10-24T21:02:15.192Z,101522.75
2022-10-24T21:04:43.523Z,101535.50
2022-10-24T21:07:19.875Z,101530.88
2022-10-24T21:09:50.407Z,101537.38
2022-10-24T21:12:20.205Z,101541.16
2022-10-24T21:14:48.542Z,101536.81
2022-10-24T21:17:16.563Z,101550.38
2022-10-24T21:19:44.372Z,101551.41
2022-10-24T21:22:12.361Z,101546.25
2022-10-24T21:24:40.005Z,101558.38
2022-10-24T21:27:08.057Z,101557.22
2022-10-24T21:29:36.634Z,101558.28
2022-10-24T21:32:04.210Z,101559.56
2022-10-24T21:34:34.295Z,101562.53
2022-10-24T21:37:03.452Z,101559.38
2022-10-24T21:39:31.388Z,101556.22
2022-10-24T21:41:58.857Z,101564.00
2022-10-24T21:44:27.219Z,101558.34
2022-10-24T21:46:54.971Z,101559.88
2022-10-24T21:52:29.255Z,101562.25
2022-10-24T21:54:57.362Z,101553.97
2022-10-24T21:57:24.596Z,101554.72
2022-10-24T21:59:51.959Z,101559.66
2022-10-24T22:02:19.733Z,101563.06
2022-10-24T22:04:47.633Z,101558.50
2022-10-24T22:07:15.113Z,101564.59
2022-10-24T22:09:42.565Z,101563.22
2022-10-24T22:12:09.966Z,101562.97
2022-10-24T22:14:37.422Z,101565.69
2022-10-24T22:17:04.918Z,101560.94
2022-10-24T22:19:32.272Z,101560.94
2022-10-24T22:22:00.029Z,101565.06
2022-10-24T22:24:27.647Z,101569.78
2022-10-24T22:26:55.054Z,101575.94
2022-10-24T22:29:24.829Z,101578.41
2022-10-24T22:31:53.608Z,101564.13
2022-10-24T22:34:26.398Z,101570.59
2022-10-24T22:37:20.001Z,101562.84
2022-10-24T22:39:48.303Z,101567.44
2022-10-24T22:42:19.365Z,101558.72
2022-10-24T22:44:48.679Z,101554.00
2022-10-24T22:47:39.283Z,101557.06
2022-10-24T22:50:06.949Z,101566.28
2022-10-24T22:52:40.847Z,101563.81
2022-10-24T22:55:53.270Z,101559.66
2022-10-24T22:58:21.423Z,101571.56
2022-10-24T23:00:55.087Z,101570.16
2022-10-24T23:03:43.194Z,101566.72
2022-10-24T23:06:24.502Z,101560.84
2022-10-24T23:08:52.106Z,101556.22
2022-10-24T23:11:20.342Z,101557.53
2022-10-24T23:13:48.704Z,101559.84
2022-10-24T23:16:42.937Z,101558.31
2022-10-24T23:19:25.275Z,101557.84
2022-10-24T23:22:12.735Z,101560.53
2022-10-24T23:24:41.588Z,101562.78
2022-10-24T23:27:14.629Z,101560.41
2022-10-24T23:29:46.938Z,101567.47
2022-10-24T23:32:28.117Z,101554.38
2022-10-24T23:34:56.593Z,101561.06
2022-10-24T23:37:37.572Z,101553.78
2022-10-24T23:40:20.388Z,101553.97
2022-10-24T23:42:50.094Z,101549.59
2022-10-24T23:45:23.740Z,101547.00
2022-10-24T23:48:23.973Z,101553.03
2022-10-24T23:51:06.436Z,101546.75
2022-10-24T23:53:52.495Z,101550.25
2022-10-24T23:56:26.242Z,101553.56
2022-10-24T23:59:02.980Z,101556.38
